Latest Weather Observations for Cape Naturaliste

IDW60801

Issued at 9:02 am WST Sunday 29 March 2015 (issued every 30 minutes, with the page automatically refreshed every 10 minutes)

About weather observations | Map of weather stations | Latest weather observations for WA | Other Formats
Station Details ID: 009519 Name: CAPE NATURALISTE Lat: -33.54 Lon: 115.02 Height: 109.0 m
Data from the previous 72 hours. | See also: Recent months at Cape Naturaliste
Date/Time
WST
Temp
°C
App
Temp
°C
Dew
Point
Rel
Hum
%
Delta-T
°C
Wind Press
QNH
hPa
Press
MSL
hPa
Rain
since 9 am
mm
Dir
 
Spd
km/h
Gust
km/h
Spd
kts
Gust
kts
29/09:00am 20.1 17.8 14.0 68 3.5 ESE 19 24 10 13 1021.5 1021.2 0.0
29/08:30am 18.9 16.6 14.6 76 2.5 SE 20 26 11 14 1021.5 1021.2 0.0
29/08:00am 17.9 15.8 15.2 84 1.6 SE 20 28 11 15 1021.3 1021.0 0.0
29/07:30am 16.4 13.6 14.4 88 1.1 SE 22 30 12 16 1021.2 1020.9 0.0
29/07:00am 15.3 12.2 13.5 89 1.0 SE 22 30 12 16 1021.2 1020.9 0.0
29/06:30am 14.9 11.7 13.1 89 1.0 SE 22 30 12 16 1021.0 1020.7 0.0
29/06:00am 14.8 11.9 13.0 89 1.0 SE 20 28 11 15 1020.9 1020.5 0.0
29/05:30am 14.6 12.6 12.8 89 1.0 SSE 15 20 8 11 1021.0 1020.7 0.0
29/05:00am 14.8 12.9 13.0 89 1.0 SSE 15 20 8 11 1021.1 1020.8 0.0
29/04:30am 15.2 13.8 13.4 89 1.0 SSE 13 19 7 10 1021.0 1020.7 0.0
29/04:00am 15.7 13.6 13.7 88 1.1 SE 17 20 9 11 1020.9 1020.5 0.0
29/03:30am 16.4 14.3 14.6 89 1.0 ESE 19 24 10 13 1020.7 1020.3 0.0
29/03:00am 16.3 14.1 14.5 89 1.0 ESE 19 24 10 13 1020.9 1020.5 0.0
29/02:30am 16.0 13.2 14.2 89 1.0 ESE 22 30 12 16 1020.7 1020.3 0.0
29/02:00am 16.1 13.7 14.3 89 1.0 SE 20 28 11 15 1020.8 1020.4 0.0
29/01:30am 16.1 13.6 14.1 88 1.1 SE 20 28 11 15 1020.9 1020.5 0.0
29/01:00am 15.7 13.6 13.5 87 1.2 SE 17 22 9 12 1021.0 1020.7 0.0
29/12:30am 15.6 13.8 13.3 86 1.3 SE 15 17 8 9 1021.0 1020.7 0.0
29/12:00am 16.3 14.3 13.8 85 1.4 SSE 17 20 9 11 1020.8 1020.4 0.0
 
Date/Time
WST
Temp
°C
App
Temp
°C
Dew
Point
Rel
Hum
%
Delta-T
°C
Wind Press
QNH
hPa
Press
MSL
hPa
Rain
since 9 am
mm
Dir
 
Spd
km/h
Gust
km/h
Spd
kts
Gust
kts
28/11:30pm 16.9 15.0 14.2 84 1.5 SSE 17 26 9 14 1020.7 1020.3 0.0
28/11:00pm 17.3 14.9 14.4 83 1.7 S 20 28 11 15 1020.8 1020.4 0.0
28/10:30pm 17.5 14.1 14.8 84 1.6 S 26 32 14 17 1020.8 1020.4 0.0
28/10:00pm 17.6 13.8 14.7 83 1.7 SSW 28 39 15 21 1020.9 1020.5 0.0
28/09:30pm 18.0 14.2 14.7 81 1.9 SSW 28 35 15 19 1021.0 1020.7 0.0
28/09:00pm 18.0 14.8 14.3 79 2.1 SSW 24 32 13 17 1021.0 1020.7 0.0
28/08:30pm 18.0 14.4 14.1 78 2.2 SSW 26 33 14 18 1021.0 1020.7 0.0
28/08:00pm 18.1 14.8 14.0 77 2.3 SSW 24 28 13 15 1020.8 1020.4 0.0
28/07:30pm 18.3 15.7 13.8 75 2.6 SSW 20 26 11 14 1020.7 1020.3 0.0
28/07:00pm 18.5 15.8 13.6 73 2.8 SSW 20 28 11 15 1020.5 1020.1 0.0
28/06:30pm 18.8 15.3 13.4 71 3.1 SSW 24 32 13 17 1020.2 1019.8 0.0
28/06:00pm 19.5 15.4 13.7 69 3.3 SSW 28 35 15 19 1020.1 1019.7 0.0
28/05:30pm 20.3 16.6 14.0 67 3.7 SW 26 35 14 19 1020.0 1019.6 0.0
28/05:00pm 21.0 16.9 13.7 63 4.2 SSW 28 39 15 21 1019.9 1019.5 0.0
28/04:30pm 21.4 17.1 13.3 60 4.7 SW 28 37 15 20 1019.8 1019.4 0.0
28/04:00pm 21.9 17.9 13.0 57 5.1 SW 26 37 14 20 1019.9 1019.5 0.0
28/03:30pm 22.3 18.3 13.1 56 5.3 SW 26 35 14 19 1019.8 1019.4 0.0
28/03:00pm 22.5 18.3 12.4 52 5.7 SW 26 35 14 19 1020.0 1019.6 0.0
28/02:30pm 22.6 18.4 12.3 52 5.9 SW 26 35 14 19 1020.1 1019.7 0.0
28/02:00pm 23.2 19.3 12.2 50 6.3 SW 24 35 13 19 1020.2 1019.8 0.0
28/01:30pm 23.2 18.9 12.2 50 6.3 SW 26 32 14 17 1020.5 1020.1 0.0
28/01:00pm 23.2 19.4 12.5 51 6.1 SW 24 32 13 17 1020.7 1020.3 0.0
28/12:30pm 23.1 19.7 12.4 51 6.1 SSW 22 35 12 19 1021.0 1020.7 0.0
28/12:00pm 22.8 19.5 12.7 53 5.8 SW 22 28 12 15 1021.3 1021.0 0.0
28/11:30am 22.9 20.8 13.7 56 5.4 SSW 17 24 9 13 1021.7 1021.4 0.0
28/11:00am 22.4 19.5 12.4 53 5.7 SSW 19 24 10 13 1021.7 1021.4 0.0
28/10:30am 21.7 19.8 13.1 58 4.9 SSW 15 22 8 12 1021.9 1021.6 0.0
28/10:00am 21.2 19.6 12.9 59 4.7 SSW 13 20 7 11 1021.9 1021.6 0.0
28/09:30am 21.3 19.4 13.0 59 4.8 SSW 15 20 8 11 1022.0 1021.7 0.0
28/09:00am 20.9 19.1 13.4 62 4.3 S 15 24 8 13 1021.8 1021.5 0.0
28/08:30am 19.9 17.6 12.9 64 4.0 S 17 22 9 12 1021.7 1021.4 0.0
28/08:00am 19.0 17.1 14.3 74 2.7 S 17 22 9 12 1021.6 1021.3 0.0
28/07:30am 16.6 15.0 12.9 79 2.1 SSE 13 17 7 9 1021.4 1021.1 0.0
28/07:00am 15.5 13.7 12.1 80 1.9 SE 13 17 7 9 1021.2 1020.9 0.0
28/06:30am 15.4 12.8 12.0 80 1.9 SSE 17 22 9 12 1020.8 1020.4 0.0
28/06:00am 15.4 12.7 11.8 79 2.0 SSE 17 24 9 13 1020.8 1020.4 0.0
28/05:30am 15.9 12.8 12.3 79 2.0 S 20 26 11 14 1020.6 1020.2 0.0
28/05:00am 16.0 13.0 12.6 80 1.9 S 20 26 11 14 1020.3 1019.9 0.0
28/04:30am 16.1 12.3 12.5 79 2.0 S 24 28 13 15 1020.1 1019.7 0.0
28/04:00am 16.1 11.9 12.5 79 2.0 S 26 32 14 17 1020.1 1019.7 0.0
28/03:30am 16.1 11.6 12.5 79 2.0 S 28 35 15 19 1019.9 1019.5 0.0
28/03:00am 16.0 11.9 12.7 81 1.8 S 26 32 14 17 1019.8 1019.4 0.0
28/02:30am 16.0 12.1 13.3 84 1.5 S 26 33 14 18 1019.9 1019.5 0.0
28/02:00am 15.7 11.8 13.4 86 1.3 S 26 32 14 17 1020.0 1019.6 0.0
28/01:30am 15.4 11.1 13.2 87 1.2 SSW 28 33 15 18 1020.2 1019.8 0.0
28/01:00am 15.3 11.8 13.3 88 1.1 SSW 24 32 13 17 1020.3 1019.9 0.0
28/12:30am 15.3 12.1 13.1 87 1.2 SSW 22 28 12 15 1020.2 1019.8 0.0
28/12:00am 15.1 12.8 13.0 87 1.2 S 17 20 9 11 1020.4 1020.0 0.0
 
Date/Time
WST
Temp
°C
App
Temp
°C
Dew
Point
Rel
Hum
%
Delta-T
°C
Wind Press
QNH
hPa
Press
MSL
hPa
Rain
since 9 am
mm
Dir
 
Spd
km/h
Gust
km/h
Spd
kts
Gust
kts
27/11:30pm 15.5 12.7 13.3 87 1.2 SSW 20 28 11 15 1020.6 1020.2 0.0
27/11:00pm 15.4 14.3 13.1 86 1.3 S 11 13 6 7 1020.8 1020.4 0.0
27/10:30pm 16.1 14.1 13.8 86 1.3 S 17 24 9 13 1020.7 1020.3 0.0
27/10:00pm 16.2 14.2 13.9 86 1.3 S 17 26 9 14 1020.5 1020.1 0.0
27/09:30pm 16.3 13.9 13.8 85 1.4 S 19 28 10 15 1020.5 1020.1 0.0
27/09:00pm 16.8 14.3 14.1 84 1.5 SSW 20 28 11 15 1020.3 1019.9 0.0
27/08:30pm 17.2 15.3 14.3 83 1.7 SSW 17 22 9 12 1020.3 1019.9 0.0
27/08:00pm 17.6 14.9 14.5 82 1.8 SSW 22 28 12 15 1020.0 1019.6 0.0
27/07:30pm 18.2 14.5 15.1 82 1.8 SSW 28 39 15 21 1019.8 1019.4 0.0
27/07:00pm 18.7 14.8 15.6 82 1.8 SSW 30 41 16 22 1019.4 1019.0 0.0
27/06:30pm 19.1 14.9 15.8 81 2.0 SSW 32 41 17 22 1019.3 1018.9 0.0
27/06:00pm 19.9 15.9 16.2 79 2.2 SSW 32 41 17 22 1019.3 1018.9 0.0
27/05:30pm 20.8 16.9 16.4 76 2.7 SSW 32 41 17 22 1019.3 1018.9 0.0
27/05:00pm 21.4 18.0 15.9 71 3.3 SW 28 37 15 20 1019.4 1019.0 0.0
27/04:30pm 22.7 19.5 15.3 63 4.4 SW 26 33 14 18 1019.3 1018.9 0.0
27/04:00pm 23.1 20.0 14.4 58 5.1 WSW 24 28 13 15 1019.3 1018.9 0.0
27/03:30pm 24.1 22.0 14.8 56 5.6 W 19 24 10 13 1019.4 1019.0 0.0
27/03:00pm 24.7 23.2 14.2 52 6.2 W 15 20 8 11 1019.5 1019.1 0.0
27/02:30pm 24.8 22.9 11.7 44 7.5 NNW 13 17 7 9 1019.6 1019.2 0.0
27/02:00pm 24.0 22.5 12.0 47 6.8 NNE 11 15 6 8 1019.6 1019.2 0.0
27/01:30pm 23.7 22.4 13.8 53 5.8 NNE 13 17 7 9 1020.1 1019.7 0.0
27/01:00pm 24.0 22.8 14.1 54 5.8 NNE 13 17 7 9 1020.4 1020.0 0.0
27/12:30pm 23.5 22.2 13.7 54 5.7 NE 13 17 7 9 1020.7 1020.3 0.0
27/12:00pm 23.5 21.8 13.7 54 5.7 NE 15 19 8 10 1020.9 1020.5 0.0
27/11:30am 23.7 22.2 14.1 55 5.7 NE 15 20 8 11 1021.2 1020.9 0.0
27/11:00am 23.4 21.7 14.7 58 5.2 NE 17 20 9 11 1021.6 1021.3 0.0
27/10:30am 23.2 21.1 14.7 58 5.1 NE 19 22 10 12 1021.6 1021.3 0.0
27/10:00am 22.8 20.5 14.6 60 4.8 NE 20 24 11 13 1021.8 1021.5 0.0
27/09:30am 22.2 20.1 15.1 64 4.2 NE 20 24 11 13 1021.9 1021.6 0.0
27/09:00am 22.0 20.4 15.1 65 4.1 NE 17 20 9 11 1021.9 1021.6 0.0
27/08:30am 20.8 18.5 14.0 65 4.0 ENE 19 22 10 12 1021.7 1021.4 0.0
27/08:00am 19.4 17.3 13.6 69 3.3 E 17 20 9 11 1021.6 1021.3 0.0
27/07:30am 19.7 17.3 14.5 72 3.0 ENE 20 28 11 15 1021.4 1021.1 0.0
27/07:00am 17.9 15.7 13.2 74 2.7 ENE 17 20 9 11 1021.2 1020.9 0.0
27/06:30am 17.9 15.2 13.0 73 2.8 E 19 20 10 11 1021.0 1020.7 0.0
27/06:00am 18.2 15.6 13.1 72 2.9 E 19 22 10 12 1020.9 1020.5 0.0
27/05:30am 18.2 15.6 13.3 73 2.8 E 19 26 10 14 1020.9 1020.5 0.0
27/05:00am 18.3 16.5 13.2 72 2.9 ESE 15 19 8 10 1020.9 1020.5 0.0
27/04:30am 19.0 17.2 13.4 70 3.2 E 15 20 8 11 1020.7 1020.3 0.0
27/04:00am 19.2 17.2 13.8 71 3.1 ENE 17 24 9 13 1020.7 1020.3 0.0
27/03:30am 19.6 16.8 14.2 71 3.1 ENE 22 30 12 16 1020.8 1020.4 0.0
27/03:00am 19.2 16.5 13.6 70 3.2 NE 20 26 11 14 1020.9 1020.5 0.0
27/02:30am 19.6 15.9 13.8 69 3.3 NE 26 33 14 18 1020.9 1020.5 0.0
27/02:00am 20.0 15.9 13.9 68 3.5 NNE 28 37 15 20 1021.1 1020.8 0.0
27/01:30am 20.2 17.0 14.3 69 3.4 N 24 32 13 17 1021.3 1021.0 0.0
27/01:00am 20.6 16.7 15.4 72 3.1 N 30 39 16 21 1021.4 1021.1 0.0
27/12:30am 20.9 19.0 15.2 70 3.4 N 19 26 10 14 1021.5 1021.2 0.0
27/12:00am 20.3 16.4 10.7 54 5.2 E 22 28 12 15 1021.4 1021.1 0.0
 
Date/Time
WST
Temp
°C
App
Temp
°C
Dew
Point
Rel
Hum
%
Delta-T
°C
Wind Press
QNH
hPa
Press
MSL
hPa
Rain
since 9 am
mm
Dir
 
Spd
km/h
Gust
km/h
Spd
kts
Gust
kts
26/11:30pm 21.2 16.4 8.8 45 6.6 E 24 30 13 16 1021.2 1020.9 0.0
26/11:00pm 21.6 17.0 8.1 42 7.1 ESE 22 30 12 16 1021.2 1020.9 0.0
26/10:30pm 20.9 17.0 9.5 48 6.1 SE 20 26 11 14 1021.2 1020.9 0.0
26/10:00pm 20.9 17.2 10.1 50 5.8 SE 20 28 11 15 1021.4 1021.1 0.0
26/09:30pm 20.4 16.6 9.9 51 5.7 SE 20 30 11 16 1021.3 1021.0 0.0
26/09:00pm 21.0 16.8 9.6 48 6.1 SSE 22 30 12 16 1021.5 1021.2 0.0
26/08:30pm 21.3 17.0 9.5 47 6.4 SSE 22 32 12 17 1021.6 1021.3 0.0
26/08:00pm 21.4 17.1 9.3 46 6.5 SSE 22 32 12 17 1021.5 1021.2 0.0
26/07:30pm 21.7 17.0 9.3 45 6.7 SSE 24 32 13 17 1021.5 1021.2 0.0
26/07:00pm 22.1 17.7 10.3 47 6.5 SSE 24 32 13 17 1021.3 1021.0 0.0
26/06:30pm 22.4 19.1 11.5 50 6.1 S 20 26 11 14 1021.2 1020.9 0.0
26/06:00pm 22.9 19.6 11.6 49 6.3 SSW 20 26 11 14 1021.5 1021.2 0.0
26/05:30pm 23.3 19.9 12.6 51 6.1 SSW 22 28 12 15 1021.4 1021.1 0.0
26/05:00pm 23.4 20.8 13.3 53 5.9 SSW 19 24 10 13 1021.4 1021.1 0.0
26/04:30pm 23.8 21.4 13.9 54 5.8 SW 19 22 10 12 1021.3 1021.0 0.0
26/04:00pm 23.8 21.1 13.6 52 6.0 SW 20 30 11 16 1021.3 1021.0 0.0
26/03:30pm 24.7 22.6 14.8 54 5.9 SW 19 26 10 14 1021.6 1021.3 0.0
26/03:00pm 25.1 22.5 13.3 48 6.9 SW 19 26 10 14 1021.7 1021.4 0.0
26/02:30pm 27.3 25.4 11.7 37 9.0 SE 13 17 7 9 1022.0 1021.7 0.0
26/02:00pm 26.6 23.3 9.5 34 9.4 E 17 20 9 11 1022.2 1021.9 0.0
26/01:30pm 25.0 21.3 10.1 39 8.3 E 20 26 11 14 1022.6 1022.3 0.0
26/01:00pm 24.2 19.7 10.1 41 7.8 E 24 32 13 17 1022.9 1022.6 0.0
26/12:30pm 23.2 18.1 10.6 45 7.0 E 28 33 15 18 1023.3 1023.0 0.0
26/12:00pm 22.7 17.4 11.1 48 6.4 E 30 35 16 19 1023.6 1023.3 0.0
26/11:30am 22.0 16.7 11.1 50 6.1 E 30 37 16 20 1023.9 1023.6 0.0
26/11:00am 21.0 15.1 11.1 53 5.5 ESE 33 41 18 22 1024.1 1023.8 0.0
26/10:30am 20.7 15.1 11.6 56 5.1 ESE 32 41 17 22 1024.4 1024.1 0.0
26/10:00am 19.7 14.0 11.7 60 4.4 ESE 33 41 18 22 1024.5 1024.2 0.0
26/09:30am 18.8 12.2 11.4 62 4.1 E 37 44 20 24 1024.7 1024.4 0.0

Other Formats:

Comma delimited format used in spreadsheet applications
http://www.bom.gov.au/fwo/IDW60801/IDW60801.94600.axf

JavaScript Object Notation format (JSON) in row-major order
http://www.bom.gov.au/fwo/IDW60801/IDW60801.94600.json